Time,TemperatureF,DewpointF,PressureIn,WindDirection,WindDirectionDegrees,WindSpeedMPH,WindSpeedGustMPH,Humidity,HourlyPrecipIn,Conditions,Clouds,dailyrainin,SoftwareType,DateUTC
2013-01-26 00:11:00,9.1,-0.6,30.05,NNW,337,4.2,-999.0,64,-99.99,,,0.00,Acu-Link.com,2013-01-26 06:11:00,
2013-01-26 00:26:00,9.0,-0.3,30.05,North,0,5.3,-999.0,65,-99.99,,,0.00,Acu-Link.com,2013-01-26 06:26:00,
2013-01-26 00:41:00,8.8,-0.5,30.04,NNW,337,4.7,-999.0,65,-99.99,,,0.00,Acu-Link.com,2013-01-26 06:41:00,
2013-01-26 00:56:00,8.4,-0.9,30.05,NW,315,0.0,-999.0,65,-99.99,,,0.00,Acu-Link.com,2013-01-26 06:56:00,
2013-01-26 01:11:00,8.1,-1.2,30.05,North,0,1.1,-999.0,65,-99.99,,,0.00,Acu-Link.com,2013-01-26 07:11:00,
2013-01-26 01:26:00,7.9,-1.4,30.05,North,0,0.0,-999.0,65,-99.99,,,0.00,Acu-Link.com,2013-01-26 07:26:00,
2013-01-26 01:41:00,7.7,-1.6,30.06,NE,45,0.0,-999.0,65,-99.99,,,0.00,Acu-Link.com,2013-01-26 07:41:00,
2013-01-26 01:56:00,7.7,-1.9,30.07,NNE,22,2.7,-999.0,64,-99.99,,,0.00,Acu-Link.com,2013-01-26 07:56:00,
2013-01-26 02:12:00,7.7,-1.9,30.07,WNW,292,0.0,-999.0,64,-99.99,,,0.00,Acu-Link.com,2013-01-26 08:12:00,
2013-01-26 02:27:00,7.5,-2.1,30.08,NW,315,1.1,-999.0,64,-99.99,,,0.00,Acu-Link.com,2013-01-26 08:27:00,
2013-01-26 02:42:00,7.2,-2.4,30.08,NNW,337,0.0,-999.0,64,-99.99,,,0.00,Acu-Link.com,2013-01-26 08:42:00,
2013-01-26 02:57:00,7.0,-2.6,30.07,NNE,22,0.0,-999.0,64,-99.99,,,0.00,Acu-Link.com,2013-01-26 08:57:00,
2013-01-26 03:17:00,6.8,-2.8,30.07,NW,315,0.0,-999.0,64,-99.99,,,0.00,Acu-Link.com,2013-01-26 09:17:00,
2013-01-26 03:32:00,6.6,-4.0,30.07,North,0,0.0,-999.0,61,-99.99,,,0.00,Acu-Link.com,2013-01-26 09:32:00,
2013-01-26 03:47:00,6.8,-4.5,30.07,NNW,337,3.2,-999.0,59,-99.99,,,0.00,Acu-Link.com,2013-01-26 09:47:00,
2013-01-26 04:02:00,6.8,-4.1,30.07,NW,315,0.0,-999.0,60,-99.99,,,0.00,Acu-Link.com,2013-01-26 10:02:00,
2013-01-26 04:17:00,6.6,-4.0,30.07,NW,315,2.7,-999.0,61,-99.99,,,0.00,Acu-Link.com,2013-01-26 10:17:00,
2013-01-26 04:32:00,6.4,-3.8,30.07,North,0,0.0,-999.0,62,-99.99,,,0.00,Acu-Link.com,2013-01-26 10:32:00,
2013-01-26 04:48:00,6.3,-3.9,30.08,North,0,0.0,-999.0,62,-99.99,,,0.00,Acu-Link.com,2013-01-26 10:48:00,
2013-01-26 05:03:00,6.1,-4.1,30.08,East,90,0.0,-999.0,62,-99.99,,,0.00,Acu-Link.com,2013-01-26 11:03:00,
2013-01-26 05:18:00,5.7,-4.1,30.08,East,90,0.0,-999.0,63,-99.99,,,0.00,Acu-Link.com,2013-01-26 11:18:00,
2013-01-26 05:33:00,5.5,-4.3,30.08,SSW,202,0.0,-999.0,63,-99.99,,,0.00,Acu-Link.com,2013-01-26 11:33:00,
2013-01-26 05:48:00,5.4,-4.4,30.09,ESE,112,0.0,-999.0,63,-99.99,,,0.00,Acu-Link.com,2013-01-26 11:48:00,
2013-01-26 06:03:00,5.5,-4.7,30.09,NE,45,0.0,-999.0,62,-99.99,,,0.00,Acu-Link.com,2013-01-26 12:03:00,
2013-01-26 06:18:00,5.5,-4.7,30.09,NE,45,0.0,-999.0,62,-99.99,,,0.00,Acu-Link.com,2013-01-26 12:18:00,
2013-01-26 06:33:00,5.5,-4.7,30.10,NE,45,0.0,-999.0,62,-99.99,,,0.00,Acu-Link.com,2013-01-26 12:33:00,
2013-01-26 06:48:00,5.5,-4.7,30.10,NNW,337,0.0,-999.0,62,-99.99,,,0.00,Acu-Link.com,2013-01-26 12:48:00,
2013-01-26 07:19:00,5.0,-5.1,30.10,ESE,112,0.0,-999.0,62,-99.99,,,0.00,Acu-Link.com,2013-01-26 13:19:00,
2013-01-26 07:34:00,5.0,-5.1,30.10,South,180,0.0,-999.0,62,-99.99,,,0.00,Acu-Link.com,2013-01-26 13:34:00,
2013-01-26 07:49:00,5.4,-5.1,30.10,SSE,157,0.0,-999.0,61,-99.99,,,0.00,Acu-Link.com,2013-01-26 13:49:00,
2013-01-26 08:04:00,6.1,-5.1,30.09,SE,135,0.0,-999.0,59,-99.99,,,0.00,Acu-Link.com,2013-01-26 14:04:00,
2013-01-26 08:19:00,6.8,-4.1,30.09,SSE,157,0.0,-999.0,60,-99.99,,,0.00,Acu-Link.com,2013-01-26 14:19:00,
2013-01-26 08:34:00,8.1,-2.2,30.10,SSE,157,2.7,-999.0,62,-99.99,,,0.00,Acu-Link.com,2013-01-26 14:34:00,
2013-01-26 08:49:00,9.3,0.0,30.10,ESE,112,0.0,-999.0,65,-99.99,,,0.00,Acu-Link.com,2013-01-26 14:49:00,
2013-01-26 09:04:00,11.8,2.7,30.10,SSE,157,4.7,-999.0,66,-99.99,,,0.00,Acu-Link.com,2013-01-26 15:04:00,
2013-01-26 09:20:00,13.1,4.2,30.11,SSW,202,2.7,-999.0,67,-99.99,,,0.00,Acu-Link.com,2013-01-26 15:20:00,
2013-01-26 09:35:00,14.0,5.1,30.10,South,180,5.3,-999.0,67,-99.99,,,0.00,Acu-Link.com,2013-01-26 15:35:00,
2013-01-26 09:50:00,16.0,7.0,30.10,SSE,157,6.8,-999.0,67,-99.99,,,0.00,Acu-Link.com,2013-01-26 15:50:00,
2013-01-26 10:05:00,16.9,7.5,30.10,South,180,4.7,-999.0,66,-99.99,,,0.00,Acu-Link.com,2013-01-26 16:05:00,
2013-01-26 10:20:00,16.5,7.2,30.10,SE,135,3.2,-999.0,66,-99.99,,,0.00,Acu-Link.com,2013-01-26 16:20:00,
2013-01-26 10:35:00,17.1,7.4,30.09,SW,225,8.3,-999.0,65,-99.99,,,0.00,Acu-Link.com,2013-01-26 16:35:00,
2013-01-26 10:50:00,18.5,8.7,30.10,SSE,157,4.2,-999.0,65,-99.99,,,0.00,Acu-Link.com,2013-01-26 16:50:00,
2013-01-26 11:05:00,18.9,8.8,30.09,SSE,157,9.4,-999.0,64,-99.99,,,0.00,Acu-Link.com,2013-01-26 17:05:00,
2013-01-26 11:20:00,19.9,9.7,30.09,SSE,157,4.2,-999.0,64,-99.99,,,0.00,Acu-Link.com,2013-01-26 17:20:00,
2013-01-26 11:36:00,22.8,11.8,30.08,South,180,10.4,-999.0,62,-99.99,,,0.00,Acu-Link.com,2013-01-26 17:36:00,
2013-01-26 11:51:00,22.1,10.7,30.08,South,180,3.7,-999.0,61,-99.99,,,0.00,Acu-Link.com,2013-01-26 17:51:00,
2013-01-26 12:06:00,24.6,12.7,30.06,South,180,5.8,-999.0,60,-99.99,,,0.00,Acu-Link.com,2013-01-26 18:06:00,
2013-01-26 12:21:00,24.8,12.5,30.05,SSE,157,7.8,-999.0,59,-99.99,,,0.00,Acu-Link.com,2013-01-26 18:21:00,
2013-01-26 12:36:00,25.5,12.8,30.04,SSE,157,7.8,-999.0,58,-99.99,,,0.00,Acu-Link.com,2013-01-26 18:36:00,
2013-01-26 12:51:00,26.4,13.3,30.02,South,180,7.3,-999.0,57,-99.99,,,0.00,Acu-Link.com,2013-01-26 18:51:00,
2013-01-26 13:06:00,27.3,13.3,30.03,South,180,6.3,-999.0,55,-99.99,,,0.00,Acu-Link.com,2013-01-26 19:06:00,
2013-01-26 13:21:00,28.4,14.3,30.03,SSE,157,6.3,-999.0,55,-99.99,,,0.00,Acu-Link.com,2013-01-26 19:21:00,
2013-01-26 13:36:00,30.0,15.4,30.02,SSE,157,4.7,-999.0,54,-99.99,,,0.00,Acu-Link.com,2013-01-26 19:36:00,
2013-01-26 13:52:00,30.4,15.3,30.01,SSE,157,8.3,-999.0,53,-99.99,,,0.00,Acu-Link.com,2013-01-26 19:52:00,
2013-01-26 14:07:00,30.4,14.5,30.00,South,180,5.8,-999.0,51,-99.99,,,0.00,Acu-Link.com,2013-01-26 20:07:00,
2013-01-26 14:22:00,31.6,15.6,29.99,SSE,157,5.3,-999.0,51,-99.99,,,0.00,Acu-Link.com,2013-01-26 20:22:00,
2013-01-26 14:37:00,30.9,14.9,29.99,SSE,157,5.3,-999.0,51,-99.99,,,0.00,Acu-Link.com,2013-01-26 20:37:00,
2013-01-26 14:52:00,31.1,15.1,29.98,South,180,11.4,-999.0,51,-99.99,,,0.00,Acu-Link.com,2013-01-26 20:52:00,
2013-01-26 15:07:00,30.0,14.1,29.97,SE,135,5.8,-999.0,51,-99.99,,,0.00,Acu-Link.com,2013-01-26 21:07:00,
2013-01-26 15:22:00,30.6,14.6,29.97,SSE,157,6.3,-999.0,51,-99.99,,,0.00,Acu-Link.com,2013-01-26 21:22:00,
2013-01-26 15:37:00,31.3,15.3,29.96,SSE,157,6.3,-999.0,51,-99.99,,,0.00,Acu-Link.com,2013-01-26 21:37:00,
2013-01-26 15:52:00,31.3,15.3,29.96,SSE,157,8.3,-999.0,51,-99.99,,,0.00,Acu-Link.com,2013-01-26 21:52:00,
2013-01-26 16:08:00,31.5,15.5,29.95,SSE,157,5.8,-999.0,51,-99.99,,,0.00,Acu-Link.com,2013-01-26 22:08:00,
2013-01-26 16:23:00,31.6,15.6,29.94,South,180,9.4,-999.0,51,-99.99,,,0.00,Acu-Link.com,2013-01-26 22:23:00,
2013-01-26 16:38:00,31.6,15.6,29.94,SSE,157,8.9,-999.0,51,-99.99,,,0.00,Acu-Link.com,2013-01-26 22:38:00,
2013-01-26 16:53:00,31.1,15.1,29.93,South,180,8.9,-999.0,51,-99.99,,,0.00,Acu-Link.com,2013-01-26 22:53:00,
2013-01-26 17:08:00,30.9,15.4,29.93,SSE,157,5.3,-999.0,52,-99.99,,,0.00,Acu-Link.com,2013-01-26 23:08:00,
2013-01-26 17:23:00,30.6,15.5,29.92,SSE,157,6.3,-999.0,53,-99.99,,,0.00,Acu-Link.com,2013-01-26 23:23:00,
2013-01-26 17:38:00,30.2,15.2,29.92,South,180,9.4,-999.0,53,-99.99,,,0.00,Acu-Link.com,2013-01-26 23:38:00,
2013-01-26 17:54:00,30.0,15.4,29.92,SSE,157,5.3,-999.0,54,-99.99,,,0.00,Acu-Link.com,2013-01-26 23:54:00,
2013-01-26 18:09:00,30.0,15.8,29.93,SE,135,3.2,-999.0,55,-99.99,,,0.00,Acu-Link.com,2013-01-27 00:09:00,
2013-01-26 18:24:00,30.2,16.0,29.93,SE,135,5.3,-999.0,55,-99.99,,,0.00,Acu-Link.com,2013-01-27 00:24:00,
2013-01-26 18:39:00,30.4,16.2,29.92,NE,45,9.4,-999.0,55,-99.99,,,0.00,Acu-Link.com,2013-01-27 00:39:00,
2013-01-26 18:54:00,30.6,16.4,29.93,West,270,7.8,-999.0,55,-99.99,,,0.00,Acu-Link.com,2013-01-27 00:54:00,
2013-01-26 19:10:00,30.6,16.4,29.92,SSE,157,5.8,-999.0,55,-99.99,,,0.00,Acu-Link.com,2013-01-27 01:10:00,
2013-01-26 19:25:00,30.4,16.2,29.92,SSE,157,6.3,-999.0,55,-99.99,,,0.00,Acu-Link.com,2013-01-27 01:25:00,
2013-01-26 19:40:00,30.2,16.4,29.92,SSW,202,7.8,-999.0,56,-99.99,,,0.00,Acu-Link.com,2013-01-27 01:40:00,
2013-01-26 19:55:00,29.8,16.0,29.91,SSE,157,6.8,-999.0,56,-99.99,,,0.00,Acu-Link.com,2013-01-27 01:55:00,
2013-01-26 20:10:00,29.3,16.0,29.91,SSW,202,6.8,-999.0,57,-99.99,,,0.00,Acu-Link.com,2013-01-27 02:10:00,
2013-01-26 20:25:00,29.1,15.8,29.91,SSE,157,9.9,-999.0,57,-99.99,,,0.00,Acu-Link.com,2013-01-27 02:25:00,
2013-01-26 20:40:00,28.6,15.7,29.91,SSE,157,4.7,-999.0,58,-99.99,,,0.00,Acu-Link.com,2013-01-27 02:40:00,
2013-01-26 20:55:00,28.8,15.9,29.91,South,180,6.3,-999.0,58,-99.99,,,0.00,Acu-Link.com,2013-01-27 02:55:00,
2013-01-26 21:10:00,28.9,16.0,29.91,SE,135,5.8,-999.0,58,-99.99,,,0.00,Acu-Link.com,2013-01-27 03:10:00,
2013-01-26 21:26:00,29.1,16.2,29.91,SSE,157,8.9,-999.0,58,-99.99,,,0.00,Acu-Link.com,2013-01-27 03:26:00,
2013-01-26 21:41:00,29.3,16.4,29.91,SE,135,7.3,-999.0,58,-99.99,,,0.00,Acu-Link.com,2013-01-27 03:41:00,
2013-01-26 21:56:00,29.1,16.6,29.91,SSW,202,4.7,-999.0,59,-99.99,,,0.00,Acu-Link.com,2013-01-27 03:56:00,
2013-01-26 22:11:00,29.1,16.6,29.91,South,180,8.3,-999.0,59,-99.99,,,0.00,Acu-Link.com,2013-01-27 04:11:00,
2013-01-26 22:26:00,29.1,16.6,29.91,South,180,3.7,-999.0,59,-99.99,,,0.00,Acu-Link.com,2013-01-27 04:26:00,
2013-01-26 22:41:00,29.1,16.6,29.91,SSE,157,5.3,-999.0,59,-99.99,,,0.00,Acu-Link.com,2013-01-27 04:41:00,
2013-01-26 22:56:00,29.1,17.0,29.92,SSE,157,4.7,-999.0,60,-99.99,,,0.00,Acu-Link.com,2013-01-27 04:56:00,
2013-01-26 23:11:00,28.8,16.7,29.92,SSE,157,5.3,-999.0,60,-99.99,,,0.00,Acu-Link.com,2013-01-27 05:11:00,
2013-01-26 23:26:00,28.2,16.9,29.92,South,180,5.3,-999.0,62,-99.99,,,0.00,Acu-Link.com,2013-01-27 05:26:00,
2013-01-26 23:42:00,27.9,16.6,29.91,SSE,157,5.8,-999.0,62,-99.99,,,0.00,Acu-Link.com,2013-01-27 05:42:00,
2013-01-26 23:57:00,28.0,17.1,29.91,SSE,157,3.7,-999.0,63,-99.99,,,0.00,Acu-Link.com,2013-01-27 05:57:00,